createdAt,value
2023-01-25T00:00:21.727Z,39.60
2023-01-25T00:05:45.596Z,38.30
2023-01-25T00:10:51.985Z,39.00
2023-01-25T00:16:04.762Z,41.40
2023-01-25T00:21:23.825Z,40.40
2023-01-25T00:26:30.565Z,41.90
2023-01-25T00:31:54.640Z,43.90
2023-01-25T00:37:20.928Z,23.70
2023-01-25T00:42:24.750Z,38.30
2023-01-25T00:47:28.508Z,36.00
2023-01-25T00:52:32.544Z,37.30
2023-01-25T00:57:36.502Z,36.10
2023-01-25T01:02:41.744Z,37.10
2023-01-25T01:07:50.192Z,33.10
2023-01-25T01:12:55.905Z,37.20
2023-01-25T01:17:59.814Z,38.40
2023-01-25T01:23:05.286Z,39.80
2023-01-25T01:28:09.225Z,38.40
2023-01-25T01:33:17.645Z,41.40
2023-01-25T01:38:21.963Z,18.40
2023-01-25T01:43:25.820Z,25.90
2023-01-25T01:48:37.651Z,35.20
2023-01-25T01:53:46.067Z,35.30
2023-01-25T01:58:51.375Z,39.40
2023-01-25T02:03:56.840Z,39.20
2023-01-25T02:09:01.234Z,39.10
2023-01-25T02:14:04.989Z,36.50
2023-01-25T02:19:13.049Z,34.20
2023-01-25T02:24:21.750Z,31.80
2023-01-25T02:29:26.838Z,22.30
2023-01-25T02:34:30.776Z,20.20
2023-01-25T02:39:35.426Z,25.90
2023-01-25T02:44:41.840Z,19.80
2023-01-25T02:49:46.545Z,20.50
2023-01-25T02:54:50.911Z,29.50
2023-01-25T02:59:55.208Z,30.80
2023-01-25T03:05:00.430Z,41.00
2023-01-25T03:10:05.407Z,38.40
2023-01-25T03:15:13.612Z,34.50
2023-01-25T03:20:18.432Z,40.20
2023-01-25T03:25:22.879Z,34.50
2023-01-25T03:30:36.171Z,31.30
2023-01-25T03:35:41.565Z,37.50
2023-01-25T03:40:47.172Z,39.90
2023-01-25T03:45:58.207Z,39.00
2023-01-25T03:51:02.503Z,38.30
2023-01-25T03:56:09.991Z,34.40
2023-01-25T04:01:15.550Z,38.30
2023-01-25T04:06:21.778Z,39.30
2023-01-25T04:11:27.224Z,33.50
2023-01-25T04:16:31.824Z,36.20
2023-01-25T04:21:54.549Z,35.00
2023-01-25T04:27:05.949Z,33.80
2023-01-25T04:32:15.420Z,34.80
2023-01-25T04:37:20.379Z,32.30
2023-01-25T04:42:31.617Z,31.40
2023-01-25T04:47:36.073Z,34.30
2023-01-25T04:52:41.495Z,34.70
2023-01-25T04:57:50.223Z,34.60
2023-01-25T05:02:55.008Z,34.00
2023-01-25T05:08:03.002Z,29.70
2023-01-25T05:13:08.383Z,24.10
2023-01-25T05:18:12.027Z,20.40
2023-01-25T05:23:21.769Z,18.50
2023-01-25T05:28:26.029Z,16.50
2023-01-25T05:33:48.828Z,17.10
2023-01-25T05:38:54.428Z,31.40
2023-01-25T05:43:58.471Z,19.00
2023-01-25T05:49:04.151Z,30.40
2023-01-25T05:54:12.556Z,36.90
2023-01-25T05:59:20.028Z,20.70
2023-01-25T06:04:25.580Z,20.60
2023-01-25T06:09:31.750Z,20.10
2023-01-25T06:14:37.714Z,24.40
2023-01-25T06:19:42.703Z,22.30
2023-01-25T06:24:54.117Z,21.80
2023-01-25T06:29:57.839Z,21.80
2023-01-25T06:35:01.602Z,19.30
2023-01-25T06:40:05.933Z,16.60
2023-01-25T06:45:10.993Z,15.70
2023-01-25T06:50:17.888Z,14.50
2023-01-25T06:55:22.136Z,15.20
2023-01-25T07:00:26.157Z,17.90
2023-01-25T07:05:30.666Z,18.80
2023-01-25T07:10:35.913Z,17.90
2023-01-25T07:15:40.219Z,17.10
2023-01-25T07:20:44.741Z,20.10
2023-01-25T07:25:53.817Z,16.80
2023-01-25T07:30:57.760Z,20.00
2023-01-25T07:36:06.329Z,18.10
2023-01-25T07:41:10.032Z,18.20
2023-01-25T07:46:18.972Z,17.00
2023-01-25T07:51:24.072Z,16.70
2023-01-25T07:56:37.971Z,18.10
2023-01-25T08:01:42.603Z,17.60
2023-01-25T08:06:46.767Z,15.00
2023-01-25T08:11:51.035Z,14.60
2023-01-25T08:16:55.566Z,14.90
2023-01-25T08:22:00.384Z,17.30
2023-01-25T08:27:06.679Z,17.40
2023-01-25T08:32:10.438Z,17.90
2023-01-25T08:37:14.196Z,16.70
2023-01-25T08:42:18.956Z,16.00
2023-01-25T08:47:23.848Z,15.90
2023-01-25T08:52:27.840Z,16.00
2023-01-25T08:57:32.131Z,15.90
2023-01-25T09:02:36.067Z,15.60
2023-01-25T09:07:41.295Z,16.00
2023-01-25T09:12:45.250Z,17.10
2023-01-25T09:17:53.635Z,17.30
2023-01-25T09:23:00.410Z,14.70
2023-01-25T09:28:11.697Z,15.70
2023-01-25T09:33:16.989Z,15.10
2023-01-25T09:38:24.433Z,15.00
2023-01-25T09:43:37.086Z,15.40
2023-01-25T09:49:08.312Z,15.80
2023-01-25T09:54:16.807Z,16.40
2023-01-25T09:59:27.559Z,16.90
2023-01-25T10:04:43.355Z,15.50
2023-01-25T10:09:52.589Z,14.40
2023-01-25T10:14:56.691Z,13.40
2023-01-25T10:20:32.828Z,14.10
2023-01-25T10:26:02.687Z,16.00
2023-01-25T10:31:18.462Z,13.50
2023-01-25T10:36:29.363Z,15.40
2023-01-25T10:41:42.785Z,14.90
2023-01-25T10:47:08.928Z,14.70
2023-01-25T10:52:30.880Z,16.60
2023-01-25T10:57:35.791Z,14.90
2023-01-25T11:02:48.666Z,13.70
2023-01-25T11:07:52.817Z,14.90
2023-01-25T11:13:15.533Z,14.90
2023-01-25T11:18:21.304Z,14.40
2023-01-25T11:23:27.197Z,13.30
2023-01-25T11:28:31.086Z,12.90
2023-01-25T11:33:35.386Z,13.80
2023-01-25T11:38:45.046Z,14.50
2023-01-25T11:44:00.624Z,13.90
2023-01-25T11:49:30.386Z,13.10
2023-01-25T11:54:53.263Z,18.90
2023-01-25T12:00:06.368Z,16.10
2023-01-25T12:05:26.167Z,13.60
2023-01-25T12:10:54.327Z,13.70
2023-01-25T12:16:31.956Z,11.90
2023-01-25T12:21:52.419Z,13.40
2023-01-25T12:27:08.237Z,11.80
2023-01-25T12:32:26.236Z,14.40
2023-01-25T12:37:35.540Z,13.40
2023-01-25T12:42:44.884Z,13.30
2023-01-25T12:48:00.292Z,13.80
2023-01-25T12:53:14.530Z,13.10
2023-01-25T12:58:38.135Z,14.30
2023-01-25T13:04:12.681Z,13.20
2023-01-25T13:09:39.676Z,14.70
2023-01-25T13:14:43.471Z,13.70
2023-01-25T13:19:48.643Z,23.90
2023-01-25T13:25:24.804Z,30.10
2023-01-25T13:30:32.469Z,14.60
2023-01-25T13:35:45.327Z,17.20
2023-01-25T13:41:04.112Z,17.10
2023-01-25T13:46:10.295Z,14.30
2023-01-25T13:51:15.318Z,13.60
2023-01-25T13:56:31.614Z,14.60
2023-01-25T14:01:37.123Z,13.30
2023-01-25T14:06:41.715Z,13.60
2023-01-25T14:12:07.369Z,13.60
2023-01-25T14:17:21.192Z,13.80
2023-01-25T14:22:28.864Z,13.10
2023-01-25T14:27:34.686Z,15.20
2023-01-25T14:32:38.481Z,14.70
2023-01-25T14:37:45.334Z,14.30
2023-01-25T14:42:50.411Z,12.40
2023-01-25T14:47:59.425Z,14.60
2023-01-25T14:53:07.939Z,15.20
2023-01-25T14:58:25.822Z,19.20
2023-01-25T15:03:32.239Z,15.00
2023-01-25T15:08:41.107Z,14.40
2023-01-25T15:13:45.497Z,13.00
2023-01-25T15:19:25.608Z,13.50
2023-01-25T15:24:30.835Z,14.80
2023-01-25T15:29:34.807Z,13.30
2023-01-25T15:34:38.809Z,16.50
2023-01-25T15:39:43.103Z,17.80
2023-01-25T15:44:48.279Z,17.00
2023-01-25T15:49:59.649Z,17.20
2023-01-25T15:55:04.700Z,16.10
2023-01-25T16:00:19.051Z,16.60
2023-01-25T16:05:28.236Z,16.90
2023-01-25T16:10:33.676Z,18.40
2023-01-25T16:15:42.487Z,17.50
2023-01-25T16:20:47.687Z,19.40
2023-01-25T16:25:52.970Z,17.60
2023-01-25T16:30:58.397Z,18.90
2023-01-25T16:36:26.292Z,17.70
2023-01-25T16:41:30.965Z,17.80
2023-01-25T16:46:36.413Z,17.50
2023-01-25T16:51:49.952Z,18.00
2023-01-25T16:56:59.941Z,18.60
2023-01-25T17:24:08.565Z,19.60
2023-01-25T17:29:15.559Z,23.20
2023-01-25T17:34:22.644Z,21.50
2023-01-25T17:39:28.061Z,21.50
2023-01-25T17:44:36.352Z,22.90
2023-01-25T17:49:43.160Z,28.50
2023-01-25T17:54:50.951Z,27.10
2023-01-25T18:00:00.297Z,21.80
2023-01-25T18:05:09.893Z,21.50
2023-01-25T18:10:22.147Z,21.30
2023-01-25T18:15:33.024Z,20.00
2023-01-25T18:20:41.154Z,18.80
2023-01-25T18:25:50.031Z,20.80
2023-01-25T18:31:04.648Z,17.50
2023-01-25T18:36:15.203Z,18.10
2023-01-25T18:41:23.075Z,18.90
2023-01-25T18:46:28.897Z,19.60
2023-01-25T18:51:58.798Z,20.80
2023-01-25T18:57:04.354Z,18.40
2023-01-25T19:02:21.939Z,18.00
2023-01-25T19:07:31.354Z,19.90
2023-01-25T19:12:38.287Z,17.20
2023-01-25T19:17:43.553Z,16.00
2023-01-25T19:22:55.353Z,15.80
2023-01-25T19:28:04.349Z,16.60
2023-01-25T19:33:12.484Z,17.10
2023-01-25T19:38:18.570Z,16.10
2023-01-25T19:43:27.443Z,17.70
2023-01-25T19:48:39.921Z,15.90
2023-01-25T19:54:05.977Z,15.70
2023-01-25T19:59:20.543Z,16.50
2023-01-25T20:04:27.440Z,15.40
2023-01-25T20:09:39.707Z,20.40
2023-01-25T20:14:49.690Z,32.60
2023-01-25T20:20:00.116Z,24.60
2023-01-25T20:25:09.857Z,25.20
2023-01-25T20:35:27.296Z,25.80
2023-01-25T20:40:33.892Z,26.80
2023-01-25T20:45:43.139Z,21.90
2023-01-25T20:50:49.013Z,22.80
2023-01-25T20:55:58.704Z,24.20
2023-01-25T21:01:14.159Z,21.80
2023-01-25T21:06:23.058Z,21.60
2023-01-25T21:11:33.205Z,22.70
2023-01-25T21:16:54.575Z,21.90
2023-01-25T21:22:01.262Z,20.40
2023-01-25T21:27:09.021Z,19.80
2023-01-25T21:32:14.441Z,20.00
2023-01-25T21:37:22.999Z,21.60
2023-01-25T21:42:32.553Z,22.50
2023-01-25T21:47:38.459Z,24.60
2023-01-25T21:52:42.446Z,23.20
2023-01-25T21:57:47.568Z,23.10
2023-01-25T22:02:52.964Z,22.30
2023-01-25T22:07:59.740Z,22.70
2023-01-25T22:13:04.758Z,22.20
2023-01-25T22:18:10.013Z,22.40
2023-01-25T22:23:15.058Z,23.20
2023-01-25T22:28:20.457Z,24.80
2023-01-25T22:33:28.940Z,24.30
2023-01-25T22:38:34.765Z,26.00
2023-01-25T22:43:41.189Z,24.20
2023-01-25T22:48:46.437Z,23.30
2023-01-25T22:53:51.458Z,25.90
2023-01-25T22:58:55.574Z,27.50
2023-01-25T23:04:00.135Z,24.70
2023-01-25T23:09:06.764Z,26.00
2023-01-25T23:14:31.045Z,29.70
2023-01-25T23:19:34.971Z,27.80
2023-01-25T23:24:39.495Z,27.70
2023-01-25T23:29:43.522Z,26.60
2023-01-25T23:34:53.482Z,30.50
2023-01-25T23:39:58.203Z,28.60
2023-01-25T23:45:02.525Z,27.80
2023-01-25T23:50:10.340Z,24.40
2023-01-25T23:55:14.565Z,23.60
